Time;durP1;ratioP1;P1;durP2;ratioP2;P2;SDS_P1;SDS_P2;PMS_P1;PMS_P2;Temp;Humidity;BMP_temperature;BMP_pressure;BME280_temperature;BME280_humidity;BME280_pressure;Samples;Min_cycle;Max_cycle;Signal;HPM_P1;HPM_P2
2022/03/25 00:02:04;;;;;;;46.70;27.00;;;3.90;99.90;;;;;;5066656;28;20051;-79
2022/03/25 00:04:30;;;;;;;47.20;27.15;;;3.80;99.90;;;;;;5067364;28;20123;-79
2022/03/25 00:06:56;;;;;;;49.35;28.35;;;4.60;99.90;;;;;;5066461;28;20044;-79
2022/03/25 00:09:22;;;;;;;43.53;26.60;;;3.80;99.90;;;;;;5067278;28;20072;-80
2022/03/25 00:11:47;;;;;;;48.70;26.30;;;3.80;99.90;;;;;;5066554;28;20052;-81
2022/03/25 00:14:14;;;;;;;48.03;27.20;;;3.70;99.90;;;;;;5066756;28;20125;-87
2022/03/25 00:16:42;;;;;;;40.08;25.17;;;3.70;99.90;;;;;;5067555;28;20093;-86
2022/03/25 00:19:08;;;;;;;42.90;25.63;;;3.60;99.90;;;;;;5065543;28;20079;-86
2022/03/25 00:21:35;;;;;;;52.78;27.80;;;4.80;99.90;;;;;;5049810;28;20079;-86
2022/03/25 00:24:00;;;;;;;55.47;25.65;;;3.60;99.90;;;;;;5031937;28;20041;-88
2022/03/25 00:26:26;;;;;;;52.85;25.65;;;3.60;99.90;;;;;;5049384;28;20047;-87
2022/03/25 00:28:52;;;;;;;55.58;27.60;;;4.20;99.90;;;;;;5048687;28;20093;-87
2022/03/25 00:31:17;;;;;;;51.72;27.02;;;3.50;99.90;;;;;;5065971;28;20139;-87
2022/03/25 00:33:46;;;;;;;48.95;28.48;;;4.30;99.90;;;;;;5048781;28;20063;-86
2022/03/25 00:36:11;;;;;;;49.78;26.70;;;3.50;99.90;;;;;;5032887;28;20040;-87
2022/03/25 00:38:37;;;;;;;44.97;26.73;;;3.40;99.90;;;;;;5032724;28;20408;-87
2022/03/25 00:41:06;;;;;;;47.95;26.50;;;3.40;99.90;;;;;;5015346;28;20050;-87
2022/03/25 00:43:34;;;;;;;56.03;29.75;;;3.30;99.90;;;;;;5048749;28;20075;-86
2022/03/25 00:46:00;;;;;;;53.72;27.52;;;3.30;99.90;;;;;;5031926;28;20041;-87
2022/03/25 00:48:27;;;;;;;52.90;28.13;;;3.30;99.90;;;;;;5065698;28;20079;-85
2022/03/25 00:50:54;;;;;;;48.33;26.85;;;3.30;99.90;;;;;;5032011;28;20086;-86
2022/03/25 00:53:20;;;;;;;52.55;27.83;;;3.30;99.90;;;;;;5065279;28;20357;-86
2022/03/25 00:55:45;;;;;;;51.30;27.27;;;3.30;99.90;;;;;;5065375;28;20089;-85
2022/03/25 00:58:11;;;;;;;47.35;26.50;;;4.70;99.90;;;;;;5047743;28;20040;-87
2022/03/25 01:00:37;;;;;;;47.30;26.17;;;3.30;99.90;;;;;;5016529;28;20086;-86
2022/03/25 01:03:03;;;;;;;47.78;28.05;;;3.30;99.90;;;;;;5065860;28;20728;-86
2022/03/25 01:05:30;;;;;;;42.38;25.88;;;3.20;99.90;;;;;;5065664;28;20040;-85
2022/03/25 01:07:55;;;;;;;46.05;25.23;;;3.20;99.90;;;;;;5064710;28;20052;-86
2022/03/25 01:10:23;;;;;;;45.13;27.10;;;4.20;99.90;;;;;;5031336;28;20054;-86
2022/03/25 01:12:49;;;;;;;39.53;24.00;;;4.10;99.90;;;;;;5034633;28;20519;-85
2022/03/25 01:15:15;;;;;;;44.28;23.90;;;4.70;99.90;;;;;;5033780;28;20045;-86
2022/03/25 01:17:41;;;;;;;40.42;24.27;;;3.20;99.90;;;;;;5033237;28;20036;-86
2022/03/25 01:20:09;;;;;;;46.50;25.27;;;4.10;99.90;;;;;;5046927;28;20377;-86
2022/03/25 01:22:35;;;;;;;42.38;24.08;;;3.00;99.90;;;;;;5065039;28;20067;-86
2022/03/25 01:25:01;;;;;;;44.22;24.52;;;4.30;99.90;;;;;;5047818;28;20045;-85
2022/03/25 01:27:27;;;;;;;40.03;23.65;;;3.20;99.90;;;;;;5031371;28;20044;-85
2022/03/25 01:29:52;;;;;;;40.70;22.15;;;3.00;99.90;;;;;;5032619;28;20047;-85
2022/03/25 01:32:18;;;;;;;39.35;24.35;;;3.00;99.90;;;;;;5048839;28;20064;-85
2022/03/25 01:34:44;;;;;;;39.80;23.92;;;3.00;99.90;;;;;;5052926;28;20052;-86
2022/03/25 01:37:11;;;;;;;36.25;22.50;;;4.20;99.90;;;;;;5020976;28;20045;-86
2022/03/25 01:39:37;;;;;;;36.47;21.50;;;3.00;99.90;;;;;;5034168;28;20407;-86
2022/03/25 01:42:03;;;;;;;36.38;22.45;;;4.30;99.90;;;;;;5065175;28;20048;-85
2022/03/25 01:44:30;;;;;;;37.50;22.65;;;2.90;99.90;;;;;;5047591;28;20353;-85
2022/03/25 01:46:59;;;;;;;37.45;21.55;;;2.90;99.90;;;;;;5064791;28;20414;-85
2022/03/25 01:49:25;;;;;;;37.20;22.73;;;3.20;99.90;;;;;;5065369;28;20040;-85
2022/03/25 01:51:55;;;;;;;36.60;21.80;;;2.80;99.90;;;;;;5064427;28;20045;-85
2022/03/25 01:54:26;;;;;;;35.60;22.70;;;3.50;99.90;;;;;;5064027;28;20032;-85
2022/03/25 01:57:14;;;;;;;43.88;22.17;;;2.80;99.90;;;;;;5064520;28;20121;-85
2022/03/25 01:59:40;;;;;;;37.85;22.75;;;2.70;99.90;;;;;;5064135;28;20049;-85
2022/03/25 02:02:09;;;;;;;38.40;21.77;;;2.80;99.90;;;;;;5063294;28;20048;-85
2022/03/25 02:04:35;;;;;;;41.58;23.45;;;2.70;99.90;;;;;;5047570;28;20080;-84
2022/03/25 02:07:02;;;;;;;39.28;23.27;;;2.70;99.90;;;;;;5046599;28;20055;-85
2022/03/25 02:09:28;;;;;;;40.03;22.15;;;2.70;99.90;;;;;;5064900;28;20043;-84
2022/03/25 02:11:55;;;;;;;36.85;22.58;;;2.70;99.90;;;;;;5046885;28;20077;-85
2022/03/25 02:14:22;;;;;;;38.67;22.75;;;3.90;99.90;;;;;;5063639;28;20044;-85
2022/03/25 02:16:48;;;;;;;35.47;20.30;;;2.60;99.90;;;;;;5048114;28;20139;-85
2022/03/25 02:19:19;;;;;;;36.78;22.20;;;2.60;99.90;;;;;;5046814;28;20072;-85
2022/03/25 02:21:47;;;;;;;36.53;21.17;;;2.60;99.90;;;;;;5064128;28;20036;-85
2022/03/25 02:24:13;;;;;;;31.98;20.40;;;2.50;99.90;;;;;;5063540;28;20040;-85
2022/03/25 02:26:39;;;;;;;33.65;21.20;;;2.50;99.90;;;;;;5064657;28;20113;-85
2022/03/25 02:29:07;;;;;;;37.03;21.38;;;3.30;99.90;;;;;;5064433;28;20245;-84
2022/03/25 02:31:33;;;;;;;36.65;21.58;;;2.40;99.90;;;;;;5032508;28;20068;-84
2022/03/25 02:34:03;;;;;;;39.95;22.38;;;2.40;99.90;;;;;;5067964;28;20052;-85
2022/03/25 02:36:29;;;;;;;38.47;20.98;;;2.40;99.90;;;;;;5050659;28;20036;-85
2022/03/25 02:38:54;;;;;;;39.60;22.25;;;2.40;99.90;;;;;;5068396;28;20044;-85
2022/03/25 02:41:20;;;;;;;34.67;21.52;;;2.40;99.90;;;;;;5050442;28;20171;-85
2022/03/25 02:43:46;;;;;;;33.60;21.35;;;2.40;99.90;;;;;;5068098;28;20380;-84
2022/03/25 02:46:12;;;;;;;36.90;22.38;;;2.50;99.90;;;;;;5017802;28;20049;-84
2022/03/25 02:48:39;;;;;;;33.13;20.70;;;2.60;99.90;;;;;;5034437;28;20047;-85
2022/03/25 02:51:05;;;;;;;42.83;23.10;;;2.40;99.90;;;;;;5068288;28;20396;-85
2022/03/25 02:53:32;;;;;;;42.53;23.02;;;2.40;99.90;;;;;;5049898;28;20136;-85
2022/03/25 02:55:58;;;;;;;40.28;22.13;;;2.40;99.90;;;;;;5034725;28;20554;-85
2022/03/25 02:58:24;;;;;;;41.72;24.15;;;2.30;99.90;;;;;;5034304;28;20044;-85
2022/03/25 03:00:50;;;;;;;35.83;21.58;;;2.90;99.90;;;;;;5050951;28;20041;-86
2022/03/25 03:03:15;;;;;;;37.75;23.42;;;2.30;99.90;;;;;;5050547;28;20122;-85
2022/03/25 03:05:42;;;;;;;40.70;22.48;;;3.60;99.90;;;;;;5050122;28;20048;-85
2022/03/25 03:08:09;;;;;;;41.67;22.65;;;2.30;99.90;;;;;;5034512;28;20045;-85
2022/03/25 03:10:35;;;;;;;37.35;21.00;;;2.20;99.90;;;;;;5068100;28;20127;-86
2022/03/25 03:13:02;;;;;;;39.00;21.50;;;3.30;99.90;;;;;;5068730;28;20127;-86
2022/03/25 03:15:28;;;;;;;39.05;22.13;;;2.20;99.90;;;;;;5049533;28;20089;-85
2022/03/25 03:17:54;;;;;;;37.45;22.67;;;2.20;99.90;;;;;;5067615;28;20059;-86
2022/03/25 03:20:21;;;;;;;38.53;22.15;;;2.60;99.90;;;;;;5033524;28;20037;-85
2022/03/25 03:22:48;;;;;;;34.85;21.70;;;2.10;99.90;;;;;;5049942;28;20500;-86
2022/03/25 03:25:14;;;;;;;35.67;22.27;;;2.50;99.90;;;;;;5050690;28;20044;-85
2022/03/25 03:27:40;;;;;;;38.92;21.38;;;2.00;99.90;;;;;;5049440;28;20044;-86
2022/03/25 03:30:08;;;;;;;40.20;22.77;;;2.00;99.90;;;;;;5050905;28;20032;-86
2022/03/25 03:32:35;;;;;;;38.55;21.73;;;2.00;99.90;;;;;;5049330;28;20052;-85
2022/03/25 03:35:01;;;;;;;36.97;23.05;;;2.00;99.90;;;;;;5050981;28;20400;-85
2022/03/25 03:37:27;;;;;;;39.67;22.15;;;2.00;99.90;;;;;;5066376;28;20044;-86
2022/03/25 03:39:52;;;;;;;40.90;21.90;;;2.80;99.90;;;;;;5050115;28;20047;-86
2022/03/25 03:42:19;;;;;;;40.47;21.33;;;2.00;99.90;;;;;;5033256;28;20065;-86
2022/03/25 03:44:45;;;;;;;38.90;21.70;;;2.00;99.90;;;;;;5049358;28;20044;-86
2022/03/25 03:47:11;;;;;;;40.20;22.20;;;3.10;99.90;;;;;;5033576;28;20036;-86
2022/03/25 03:49:37;;;;;;;42.03;22.20;;;1.90;99.90;;;;;;5065501;28;20037;-86
2022/03/25 03:52:04;;;;;;;42.10;23.38;;;2.50;99.90;;;;;;5034107;28;20453;-86
2022/03/25 03:54:33;;;;;;;42.88;23.95;;;2.00;99.90;;;;;;5049450;28;20470;-86
2022/03/25 03:56:59;;;;;;;42.22;23.42;;;1.90;99.90;;;;;;5050002;28;20036;-85
2022/03/25 03:59:25;;;;;;;42.80;24.45;;;1.90;99.90;;;;;;5068769;28;20036;-85
2022/03/25 04:01:51;;;;;;;42.90;23.60;;;2.50;99.90;;;;;;5068365;28;20049;-85
2022/03/25 04:04:17;;;;;;;45.33;24.83;;;1.90;99.90;;;;;;5055659;28;20040;-85
2022/03/25 04:06:44;;;;;;;48.63;24.92;;;1.90;99.90;;;;;;5033956;28;20736;-84
2022/03/25 04:09:10;;;;;;;47.50;26.38;;;1.90;99.90;;;;;;5050276;28;20511;-85
2022/03/25 04:11:36;;;;;;;45.47;24.80;;;1.90;99.90;;;;;;5067236;28;20545;-85
2022/03/25 04:14:02;;;;;;;39.80;24.17;;;3.10;99.90;;;;;;5032409;28;20135;-85
2022/03/25 04:16:31;;;;;;;41.65;23.83;;;3.30;99.90;;;;;;5049885;28;20044;-85
2022/03/25 04:18:57;;;;;;;43.60;22.25;;;1.80;99.90;;;;;;5032108;28;20683;-85
2022/03/25 04:21:23;;;;;;;40.38;22.75;;;1.80;99.90;;;;;;5049891;28;20040;-85
2022/03/25 04:23:49;;;;;;;37.38;21.73;;;1.80;99.90;;;;;;5015056;28;20049;-86
2022/03/25 04:26:15;;;;;;;43.13;22.75;;;1.80;99.90;;;;;;5049340;28;20048;-85
2022/03/25 04:28:41;;;;;;;41.97;21.95;;;1.70;99.90;;;;;;5048673;28;20123;-85
2022/03/25 04:31:06;;;;;;;44.80;22.63;;;2.10;99.90;;;;;;5065353;28;20079;-85
2022/03/25 04:33:34;;;;;;;35.67;20.10;;;1.70;99.90;;;;;;5065561;28;20060;-85
2022/03/25 04:36:01;;;;;;;37.83;21.30;;;1.70;99.90;;;;;;5048757;28;20401;-85
2022/03/25 04:38:27;;;;;;;39.78;21.42;;;1.70;99.90;;;;;;5049349;28;20041;-86
2022/03/25 04:40:53;;;;;;;39.97;21.40;;;2.40;99.90;;;;;;5031495;28;20080;-86
2022/03/25 04:43:18;;;;;;;46.42;22.92;;;3.10;99.90;;;;;;5032543;28;20091;-87
2022/03/25 04:45:44;;;;;;;37.47;22.08;;;1.60;99.90;;;;;;5048719;28;20040;-86
2022/03/25 04:48:11;;;;;;;37.38;22.60;;;1.60;99.90;;;;;;5048553;28;20753;-87
2022/03/25 04:50:37;;;;;;;38.45;22.15;;;0.90;99.90;;;;;;5048823;28;20102;-84
2022/03/25 04:53:04;;;;;;;41.08;22.08;;;1.60;99.90;;;;;;5047549;28;20496;-85
2022/03/25 04:55:29;;;;;;;37.60;21.05;;;1.60;99.90;;;;;;5031946;28;20040;-85
2022/03/25 04:57:55;;;;;;;40.80;21.67;;;1.60;99.90;;;;;;5031413;28;20093;-86
2022/03/25 05:00:21;;;;;;;36.60;21.02;;;2.20;99.90;;;;;;5032415;28;20051;-85
2022/03/25 05:02:47;;;;;;;35.38;21.23;;;1.70;99.90;;;;;;5031343;28;20048;-86
2022/03/25 05:05:13;;;;;;;40.38;21.10;;;1.60;99.90;;;;;;5048710;28;20142;-86
2022/03/25 05:07:44;;;;;;;40.20;21.65;;;1.50;99.90;;;;;;5048708;28;20086;-85
2022/03/25 05:10:11;;;;;;;34.75;20.63;;;1.50;99.90;;;;;;5064532;28;20454;-86
2022/03/25 05:12:38;;;;;;;39.15;21.75;;;1.50;99.90;;;;;;5065366;28;20391;-86
2022/03/25 05:15:05;;;;;;;40.75;21.88;;;1.80;99.90;;;;;;5047300;28;20051;-86
2022/03/25 05:17:30;;;;;;;44.25;22.25;;;1.40;99.90;;;;;;5031910;28;20119;-86
2022/03/25 05:19:56;;;;;;;48.53;22.02;;;1.40;99.90;;;;;;5014604;28;20131;-86
2022/03/25 05:22:22;;;;;;;39.33;21.63;;;1.40;99.90;;;;;;5047654;28;20044;-87
2022/03/25 05:24:48;;;;;;;42.33;22.70;;;2.80;99.90;;;;;;5048264;28;20045;-85
2022/03/25 05:27:14;;;;;;;42.85;24.10;;;1.30;99.90;;;;;;5063572;28;20079;-86
2022/03/25 05:29:40;;;;;;;47.13;25.55;;;1.40;99.90;;;;;;5031572;28;20043;-87
2022/03/25 05:32:06;;;;;;;44.63;22.00;;;1.40;99.90;;;;;;5063777;28;20045;-87
2022/03/25 05:34:32;;;;;;;51.55;25.20;;;1.50;99.90;;;;;;5031469;28;20048;-87
2022/03/25 05:36:57;;;;;;;47.05;23.60;;;1.40;99.90;;;;;;5064025;28;20465;-86
2022/03/25 05:39:23;;;;;;;48.58;25.02;;;1.50;99.90;;;;;;5048107;28;20139;-87
2022/03/25 05:41:49;;;;;;;49.75;26.13;;;1.50;99.90;;;;;;5031718;28;20060;-88
2022/03/25 05:44:15;;;;;;;51.90;27.23;;;1.60;99.90;;;;;;5046960;28;20086;-87
2022/03/25 05:46:40;;;;;;;52.88;26.50;;;1.60;99.90;;;;;;5031752;28;20055;-87
2022/03/25 05:49:06;;;;;;;57.25;27.95;;;1.60;99.90;;;;;;5046972;28;20037;-86
2022/03/25 05:51:32;;;;;;;52.53;26.73;;;1.60;99.90;;;;;;5048447;28;20108;-85
2022/03/25 05:53:57;;;;;;;53.05;26.13;;;1.60;99.90;;;;;;5063922;28;20588;-86
2022/03/25 05:56:23;;;;;;;48.00;25.83;;;1.70;99.90;;;;;;5047994;28;20105;-86
2022/03/25 05:58:49;;;;;;;55.88;26.48;;;1.70;99.90;;;;;;5031213;28;20133;-88
2022/03/25 06:01:15;;;;;;;50.03;26.40;;;1.00;99.90;;;;;;5063433;28;20044;-83
2022/03/25 06:03:41;;;;;;;48.72;26.60;;;1.70;99.90;;;;;;5014817;28;20048;-85
2022/03/25 06:06:07;;;;;;;53.80;27.52;;;1.80;99.90;;;;;;5029967;28;20040;-87
2022/03/25 06:08:33;;;;;;;56.80;27.50;;;1.80;99.90;;;;;;5047620;28;20045;-89
2022/03/25 06:10:59;;;;;;;56.05;27.77;;;1.90;99.90;;;;;;5030417;28;20049;-85
2022/03/25 06:13:29;;;;;;;48.92;27.88;;;2.00;99.90;;;;;;5064228;28;20052;-85
2022/03/25 06:15:55;;;;;;;51.90;26.65;;;2.00;99.90;;;;;;5031549;28;20038;-87
2022/03/25 06:18:22;;;;;;;56.40;27.63;;;2.10;99.90;;;;;;5029651;28;20044;-88
2022/03/25 06:20:48;;;;;;;48.55;26.27;;;2.70;99.90;;;;;;5048622;28;20131;-87
2022/03/25 06:23:14;;;;;;;48.28;25.88;;;2.20;99.90;;;;;;5064735;28;20048;-88
2022/03/25 06:25:41;;;;;;;50.50;26.08;;;2.50;99.90;;;;;;5066040;28;20048;-88
2022/03/25 06:28:07;;;;;;;51.17;26.90;;;2.30;99.90;;;;;;5057048;28;20110;-87
2022/03/25 06:30:35;;;;;;;48.65;25.50;;;3.30;99.90;;;;;;5043314;28;20052;-92
2022/03/25 06:33:09;;;;;;;45.35;25.30;;;2.50;99.90;;;;;;5051604;28;20045;-90
2022/03/25 06:35:36;;;;;;;51.63;27.05;;;2.60;99.90;;;;;;5046986;28;20056;-89
2022/03/25 06:38:03;;;;;;;59.10;29.95;;;2.70;99.90;;;;;;5047842;28;20036;-87
2022/03/25 06:40:29;;;;;;;52.72;26.45;;;2.70;99.90;;;;;;5063405;28;20048;-87
2022/03/25 06:42:57;;;;;;;48.63;27.08;;;2.90;99.90;;;;;;5064161;28;20040;-85
2022/03/25 06:45:30;;;;;;;54.47;28.85;;;3.00;99.90;;;;;;5046752;28;20040;-85
2022/03/25 06:47:57;;;;;;;58.28;28.23;;;3.20;99.90;;;;;;5062929;28;20044;-83
2022/03/25 06:50:24;;;;;;;54.42;28.20;;;3.30;99.90;;;;;;5064304;28;20246;-83
2022/03/25 06:52:50;;;;;;;62.20;28.30;;;3.50;99.90;;;;;;5063110;28;20052;-84
2022/03/25 06:55:17;;;;;;;61.58;31.08;;;3.60;99.90;;;;;;5047542;28;20044;-84
2022/03/25 06:57:42;;;;;;;51.95;28.55;;;3.70;99.90;;;;;;5064387;28;20052;-89
2022/03/25 07:00:12;;;;;;;58.67;29.50;;;3.90;99.90;;;;;;5046915;28;20041;-86
2022/03/25 07:02:39;;;;;;;63.75;30.98;;;4.00;99.90;;;;;;5030700;28;20080;-87
2022/03/25 07:05:06;;;;;;;56.97;30.20;;;4.20;99.90;;;;;;5013282;28;20388;-86
2022/03/25 07:07:34;;;;;;;56.28;29.63;;;4.30;99.90;;;;;;5014222;28;20076;-87
2022/03/25 07:10:00;;;;;;;60.58;29.35;;;4.50;99.90;;;;;;5028964;28;20040;-87
2022/03/25 07:12:25;;;;;;;58.28;30.60;;;4.70;99.90;;;;;;5030114;28;20051;-87
2022/03/25 07:14:51;;;;;;;54.70;29.73;;;4.80;99.90;;;;;;5029290;28;20044;-87
2022/03/25 07:17:18;;;;;;;52.08;28.85;;;5.00;99.90;;;;;;5015576;28;20681;-87
2022/03/25 07:19:43;;;;;;;49.25;29.23;;;5.60;99.90;;;;;;5050238;28;20412;-87
2022/03/25 07:22:09;;;;;;;48.83;26.67;;;5.30;99.90;;;;;;5049686;28;20119;-87
2022/03/25 07:24:35;;;;;;;60.97;28.10;;;6.90;99.90;;;;;;5017058;28;20435;-87
2022/03/25 07:27:00;;;;;;;47.17;27.25;;;7.00;99.90;;;;;;5031987;28;20045;-85
2022/03/25 07:29:26;;;;;;;51.92;27.15;;;6.40;99.90;;;;;;5067298;28;20041;-86
2022/03/25 07:31:52;;;;;;;43.53;25.35;;;6.60;99.90;;;;;;5048678;28;20041;-86
2022/03/25 07:34:17;;;;;;;46.72;25.52;;;7.10;99.90;;;;;;5050044;28;20041;-86
2022/03/25 07:36:43;;;;;;;46.40;25.27;;;7.40;99.90;;;;;;5066101;28;20052;-87
2022/03/25 07:39:09;;;;;;;44.33;23.73;;;6.40;99.90;;;;;;5049740;28;20036;-86
2022/03/25 07:41:34;;;;;;;46.88;25.27;;;7.90;99.90;;;;;;5067968;28;20052;-86
2022/03/25 07:44:00;;;;;;;38.25;24.50;;;6.70;99.90;;;;;;5049325;28;20147;-87
2022/03/25 07:46:27;;;;;;;38.15;23.58;;;6.90;99.90;;;;;;5049516;28;20496;-87
2022/03/25 07:48:53;;;;;;;46.00;24.63;;;7.10;99.90;;;;;;5031800;28;20044;-87
2022/03/25 07:51:18;;;;;;;43.20;23.52;;;8.20;99.90;;;;;;5067212;28;20050;-80
2022/03/25 07:53:44;;;;;;;35.97;22.45;;;6.30;99.90;;;;;;5049679;28;20041;-81
2022/03/25 07:56:11;;;;;;;40.20;21.33;;;7.60;99.90;;;;;;5068247;28;20056;-81
2022/03/25 07:58:37;;;;;;;37.22;21.33;;;7.70;99.90;;;;;;5067085;28;20508;-81
2022/03/25 08:01:04;;;;;;;33.15;20.55;;;9.10;99.90;;;;;;5066385;28;20056;-81
2022/03/25 08:03:30;;;;;;;37.30;19.85;;;8.10;99.90;;;;;;5068928;28;20049;-81
2022/03/25 08:05:56;;;;;;;40.08;21.23;;;8.20;99.90;;;;;;5067624;28;20137;-81
2022/03/25 08:08:22;;;;;;;37.53;20.85;;;8.80;99.90;;;;;;5068780;28;20051;-81
2022/03/25 08:10:54;;;;;;;37.47;19.88;;;8.60;99.90;;;;;;5066541;28;20503;-80
2022/03/25 08:13:20;;;;;;;34.50;19.57;;;8.80;99.90;;;;;;5068147;28;20040;-80
2022/03/25 08:15:46;;;;;;;32.78;17.80;;;9.70;99.90;;;;;;5068620;28;20335;-81
2022/03/25 08:18:13;;;;;;;31.55;16.77;;;10.20;99.90;;;;;;5066034;28;20480;-81
2022/03/25 08:20:44;;;;;;;28.77;16.48;;;9.40;99.90;;;;;;5070735;28;20047;-81
2022/03/25 08:23:12;;;;;;;21.88;13.07;;;9.50;99.90;;;;;;5067780;28;20052;-80
2022/03/25 08:28:24;;;;;;;27.35;14.48;;;9.60;99.90;;;;;;5068049;28;20048;-81
2022/03/25 08:30:50;;;;;;;25.73;13.55;;;9.70;99.90;;;;;;5068470;28;20428;-81
2022/03/25 08:33:18;;;;;;;31.67;14.05;;;9.70;99.90;;;;;;5034796;28;20053;-81
2022/03/25 08:35:45;;;;;;;23.10;13.60;;;9.80;99.90;;;;;;5068091;28;20068;-81
2022/03/25 08:38:11;;;;;;;23.42;13.80;;;9.80;99.90;;;;;;5069512;28;20154;-81
2022/03/25 08:40:38;;;;;;;30.45;13.88;;;9.90;99.90;;;;;;5068403;28;20048;-81
2022/03/25 08:43:05;;;;;;;25.30;14.35;;;10.10;99.90;;;;;;5050700;28;20048;-81
2022/03/25 08:45:32;;;;;;;24.42;12.60;;;10.30;99.90;;;;;;5067325;28;20462;-79
2022/03/25 08:47:58;;;;;;;26.27;12.48;;;10.50;99.90;;;;;;5067876;28;20883;-80
2022/03/25 08:50:24;;;;;;;24.73;13.75;;;10.60;99.90;;;;;;5067403;28;20060;-80
2022/03/25 08:52:51;;;;;;;33.00;14.75;;;10.80;99.90;;;;;;5066407;28;20051;-81
2022/03/25 08:55:18;;;;;;;27.65;14.43;;;10.90;99.90;;;;;;5069388;28;20094;-80
2022/03/25 08:57:45;;;;;;;22.33;12.18;;;11.30;99.90;;;;;;5034403;28;20082;-82
2022/03/25 09:00:14;;;;;;;26.70;13.63;;;11.20;99.90;;;;;;5068659;28;20532;-82
2022/03/25 09:02:42;;;;;;;25.05;12.80;;;11.40;99.90;;;;;;5068752;28;20047;-81
2022/03/25 09:05:09;;;;;;;21.38;14.02;;;11.70;99.90;;;;;;5065987;28;20076;-81
2022/03/25 09:07:36;;;;;;;19.85;13.10;;;11.70;99.90;;;;;;5067430;28;20071;-80
2022/03/25 09:10:03;;;;;;;32.63;13.43;;;11.90;99.90;;;;;;5066054;28;20040;-80
2022/03/25 09:12:29;;;;;;;21.27;12.88;;;12.10;99.90;;;;;;5068497;28;20055;-81
2022/03/25 09:14:54;;;;;;;24.33;13.75;;;12.40;99.90;;;;;;5065744;28;20040;-81
2022/03/25 09:17:20;;;;;;;22.50;12.02;;;12.50;99.90;;;;;;5066265;28;20045;-81
2022/03/25 09:19:46;;;;;;;24.23;12.13;;;12.80;99.90;;;;;;5066570;28;20044;-81
2022/03/25 09:22:12;;;;;;;24.23;13.27;;;12.70;99.90;;;;;;5065298;28;20054;-81
2022/03/25 09:24:38;;;;;;;24.67;14.32;;;12.80;99.90;;;;;;5066508;28;20123;-82
2022/03/25 09:27:04;;;;;;;26.50;13.38;;;12.90;99.90;;;;;;5048763;28;20136;-79
2022/03/25 09:29:29;;;;;;;19.58;10.98;;;13.00;99.80;;;;;;5067095;28;20453;-81
2022/03/25 09:31:55;;;;;;;22.08;11.80;;;13.10;98.30;;;;;;5066144;28;20044;-80
2022/03/25 09:37:05;;;;;;;24.52;13.18;;;13.30;98.00;;;;;;5068344;28;20414;-80
2022/03/25 09:39:31;;;;;;;20.58;11.50;;;13.80;97.50;;;;;;5066704;28;20051;-80
2022/03/25 09:41:59;;;;;;;20.98;12.50;;;13.70;96.50;;;;;;5065698;28;20041;-80
2022/03/25 09:44:24;;;;;;;21.75;12.85;;;13.90;95.50;;;;;;5065919;28;20090;-81
2022/03/25 09:46:50;;;;;;;23.48;13.38;;;14.20;94.10;;;;;;5049183;28;20036;-81
2022/03/25 09:49:18;;;;;;;22.00;11.98;;;14.30;91.90;;;;;;5066484;28;20557;-81
2022/03/25 09:51:44;;;;;;;25.63;11.98;;;14.40;91.70;;;;;;5064954;28;20057;-81
2022/03/25 09:54:13;;;;;;;22.02;12.13;;;14.60;91.10;;;;;;5065446;28;20500;-81
2022/03/25 09:56:40;;;;;;;22.83;10.80;;;14.80;86.80;;;;;;5064303;28;20040;-81
2022/03/25 09:59:07;;;;;;;22.38;11.00;;;14.90;87.20;;;;;;5048524;28;20040;-80
2022/03/25 10:01:34;;;;;;;19.10;11.02;;;15.00;83.60;;;;;;5047863;28;20059;-81
2022/03/25 10:03:59;;;;;;;20.02;11.80;;;15.10;81.10;;;;;;5065507;28;20383;-80
2022/03/25 10:06:25;;;;;;;18.98;11.15;;;15.20;77.50;;;;;;5032538;28;20518;-79
2022/03/25 10:08:56;;;;;;;23.50;12.73;;;15.30;76.70;;;;;;5048352;28;20079;-80
2022/03/25 10:11:28;;;;;;;23.35;12.60;;;15.40;73.20;;;;;;5066880;28;20051;-80
2022/03/25 10:14:33;;;;;;;24.45;12.27;;;15.40;72.10;;;;;;5065463;28;20056;-80
2022/03/25 10:17:08;;;;;;;26.13;12.40;;;15.60;66.40;;;;;;5063457;28;20767;-80
2022/03/25 10:19:45;;;;;;;20.33;11.82;;;15.70;71.60;;;;;;5065243;28;20052;-80
2022/03/25 10:22:14;;;;;;;20.73;11.75;;;15.80;72.10;;;;;;5065141;28;20092;-79
2022/03/25 10:24:44;;;;;;;22.73;12.38;;;15.90;71.10;;;;;;5048473;28;20066;-78
2022/03/25 10:27:10;;;;;;;22.67;12.55;;;16.00;68.80;;;;;;5046870;28;20044;-79
2022/03/25 10:29:37;;;;;;;23.20;13.00;;;15.90;68.20;;;;;;5065204;28;20067;-80
2022/03/25 10:32:11;;;;;;;21.23;13.70;;;16.00;67.70;;;;;;5064889;28;20055;-80
2022/03/25 10:34:41;;;;;;;30.67;14.27;;;15.30;66.60;;;;;;5063672;28;20056;-81
2022/03/25 10:37:14;;;;;;;23.65;13.38;;;16.10;66.30;;;;;;5048457;28;20462;-81
2022/03/25 10:39:53;;;;;;;20.70;12.63;;;16.10;65.20;;;;;;5046830;28;20048;-80
2022/03/25 10:42:19;;;;;;;28.73;13.05;;;16.20;62.40;;;;;;5048468;28;20114;-80
2022/03/25 10:44:45;;;;;;;24.48;13.25;;;16.20;63.30;;;;;;5065018;28;20464;-80
2022/03/25 10:47:17;;;;;;;22.73;12.60;;;16.30;62.20;;;;;;5065235;28;20551;-80
2022/03/25 10:49:46;;;;;;;21.17;12.40;;;16.30;61.70;;;;;;5064617;28;20052;-79
2022/03/25 10:52:31;;;;;;;19.33;11.50;;;16.30;60.90;;;;;;5066336;28;20445;-80
2022/03/25 10:55:20;;;;;;;20.75;12.75;;;16.30;58.90;;;;;;5070257;28;20048;-80
2022/03/25 10:57:47;;;;;;;20.45;13.52;;;16.40;57.50;;;;;;5067727;28;20048;-80
2022/03/25 11:00:13;;;;;;;23.13;13.25;;;16.40;60.60;;;;;;5067567;28;20128;-80
2022/03/25 11:02:39;;;;;;;24.60;12.23;;;16.50;60.40;;;;;;5069900;28;20054;-80
2022/03/25 11:05:09;;;;;;;27.20;13.43;;;16.50;59.20;;;;;;5050505;28;20033;-80
2022/03/25 11:07:40;;;;;;;23.48;13.38;;;16.60;59.00;;;;;;5069698;28;20044;-79
2022/03/25 11:10:06;;;;;;;27.30;15.02;;;16.60;58.50;;;;;;5068843;28;20036;-79
2022/03/25 11:12:33;;;;;;;24.98;12.80;;;16.60;58.80;;;;;;5051645;28;20036;-78
2022/03/25 11:14:59;;;;;;;23.45;13.80;;;16.70;57.50;;;;;;5050910;28;20080;-79
2022/03/25 11:17:31;;;;;;;31.95;16.00;;;16.70;57.30;;;;;;5050006;28;20076;-78
2022/03/25 11:19:59;;;;;;;26.13;14.15;;;16.70;56.10;;;;;;5069965;28;20043;-78
2022/03/25 11:22:26;;;;;;;24.25;12.57;;;16.70;56.30;;;;;;5067215;28;20045;-79
2022/03/25 11:24:55;;;;;;;30.25;14.13;;;16.80;56.10;;;;;;5069043;28;20381;-81
2022/03/25 11:27:27;;;;;;;22.02;12.25;;;16.90;55.00;;;;;;5067332;28;20468;-80
2022/03/25 11:29:57;;;;;;;22.02;11.75;;;16.90;54.70;;;;;;5067355;28;20562;-79
2022/03/25 11:32:24;;;;;;;22.23;12.48;;;17.00;55.00;;;;;;5068021;28;20091;-80
2022/03/25 11:34:56;;;;;;;22.45;12.10;;;17.10;54.20;;;;;;5049841;28;20401;-80
2022/03/25 11:37:21;;;;;;;20.67;12.95;;;17.20;52.30;;;;;;5068352;28;20048;-78
2022/03/25 11:39:48;;;;;;;20.65;12.23;;;17.20;52.90;;;;;;5066715;28;20498;-78
2022/03/25 11:42:43;;;;;;;17.92;10.57;;;17.30;53.00;;;;;;5050926;28;20044;-78
2022/03/25 11:45:21;;;;;;;19.15;10.98;;;17.50;50.50;;;;;;5067192;28;20559;-78
2022/03/25 11:47:59;;;;;;;26.75;11.25;;;17.50;50.70;;;;;;5049357;28;20041;-79
2022/03/25 11:50:36;;;;;;;17.23;10.85;;;17.60;50.00;;;;;;5051294;28;20423;-79
2022/03/25 11:53:11;;;;;;;18.25;11.38;;;17.70;50.40;;;;;;5066138;28;20045;-79
2022/03/25 11:55:59;;;;;;;17.10;9.75;;;17.90;49.90;;;;;;5067343;28;20447;-79
2022/03/25 11:58:26;;;;;;;19.13;9.50;;;18.00;48.50;;;;;;5051453;28;20044;-79
2022/03/25 12:01:06;;;;;;;15.10;8.60;;;17.90;49.00;;;;;;5067231;28;20051;-78
2022/03/25 12:03:53;;;;;;;19.42;10.13;;;17.90;48.70;;;;;;5050445;28;20052;-79
2022/03/25 12:06:30;;;;;;;18.67;9.07;;;17.80;46.30;;;;;;5066660;28;20574;-79
2022/03/25 12:09:02;;;;;;;16.95;8.73;;;17.80;48.00;;;;;;5066281;28;20072;-79
2022/03/25 12:11:52;;;;;;;16.80;8.43;;;17.90;48.40;;;;;;5068966;28;20446;-80
2022/03/25 12:14:31;;;;;;;17.63;8.25;;;17.90;45.40;;;;;;5065651;28;20044;-79
2022/03/25 12:17:12;;;;;;;16.30;8.77;;;17.90;47.00;;;;;;5067940;28;20492;-78
2022/03/25 12:19:51;;;;;;;14.65;7.90;;;17.90;45.40;;;;;;5066291;28;20109;-79
2022/03/25 12:22:17;;;;;;;15.73;8.70;;;17.80;44.80;;;;;;5065185;28;20137;-79
2022/03/25 12:24:43;;;;;;;20.48;9.93;;;17.70;45.40;;;;;;5067035;28;20080;-79
2022/03/25 12:27:08;;;;;;;13.20;8.20;;;17.70;45.80;;;;;;5048834;28;20123;-79
2022/03/25 12:29:38;;;;;;;18.55;10.45;;;17.80;46.20;;;;;;5066464;28;20040;-78
2022/03/25 12:32:07;;;;;;;19.70;10.20;;;17.80;45.20;;;;;;5065741;28;20526;-79
2022/03/25 12:35:00;;;;;;;22.00;12.63;;;17.80;45.90;;;;;;5067141;28;20052;-80
2022/03/25 12:37:35;;;;;;;21.08;12.00;;;17.90;45.70;;;;;;5066441;28;20549;-79
2022/03/25 12:40:11;;;;;;;20.02;11.57;;;17.90;46.50;;;;;;5048445;28;20492;-79
2022/03/25 12:42:36;;;;;;;19.15;12.07;;;17.90;46.30;;;;;;5066097;28;20051;-79